Istanbul, Turkey

4:50 PM +03 on March 26, 2017 (GMT +0300)
Ataturk | | Change Station

Elev 121 ft 40.97 °N, 28.82 °E | Updated 14 minutes ago

Light Thunderstorms and Rain
Light Thunderstorm Rain
52 °F
Feels Like 52 °F
N
1
Wind Variable Wind from Variable

Today
High -- | Low -- °F
--% Chance of Precip.
Yesterday
High -- | Low -- °F
Precip. -- in
Pressure 29.86 in
Visibility 3.7 miles
Clouds Few 2000 ft
Scattered Clouds 3000 ft
Mostly Cloudy 8000 ft
Dew Point 46 °F
Humidity 82%
Rainfall 0.00 in
Snow Depth Not available.
6:58 AM 7:23 PM
Waning Crescent, 3% visible
SPECI LTBA 261336Z VRB01KT 6000 -TSRA FEW020CB SCT030 BKN080 11/08 Q1011 RESHRA BECMG TL1420 NSW RMK RWY17L 16003KT 060V230 RWY05 VRB02KT RWY23 VRB01KT
Pressure 29.86 in
Visibility 3.7 miles
Clouds Few 2000 ft
Scattered Clouds 3000 ft
Mostly Cloudy 8000 ft
Dew Point 46 °F
Humidity 82%
Rainfall 0.00 in
Snow Depth Not available.
6:58 AM 7:23 PM
Waning Crescent, 3% visible
SPECI LTBA 261336Z VRB01KT 6000 -TSRA FEW020CB SCT030 BKN080 11/08 Q1011 RESHRA BECMG TL1420 NSW RMK RWY17L 16003KT 060V230 RWY05 VRB02KT RWY23 VRB01KT

Get Severe Weather Alerts

Thanks for signing up!

Be on the lookout for a verification email in your inbox.

You'll start receiving the daily forecast at 8 AM.

×

10-Day Weather Forecast

×

Almanac

Astronomy

Mar. 26, 2017 Rise Set
Actual Time
Civil Twilight
Nautical Twilight
Astronomical Twilight
Moon
Length of Visible Light
Length of Day
Tomorrow will be .
, % of the Moon is Illuminated

Today's Extremes

Country Highs Country Lows

Community

WunderPhotos

Upload Photos

1,962,540 photos uploaded!

WunderBlog® & News

Nearby

Air Quality

  Air Quality AQ Index Pollutant
Not available.

Snow Depth

Station Depth Elevation

Earthquake Activity

City Distance Mag. Time & Date
Minimum magnitude displayed is 2.5.

Earthquake Activity

City Distance Mag. Time & Date
Minimum magnitude displayed is 2.5.

Coastal Water Temperatures

Place Temperature

Stations

Nearby Weather Stations

Station Location Temp. Windchill Dew Point Humidity Wind Precip. Elev Updated Type